Time;durP1;ratioP1;P1;durP2;ratioP2;P2;SDS_P1;SDS_P2;PMS_P1;PMS_P2;Temp;Humidity;BMP_temperature;BMP_pressure;BME280_temperature;BME280_humidity;BME280_pressure;Samples;Min_cycle;Max_cycle;Signal;HPM_P1;HPM_P2
2024/02/10 00:01:46;;;;;;;15.63;9.55;;;;;;;8.80;59.16;98464.44;6143429;23;20005;-95
2024/02/10 00:04:19;;;;;;;21.83;10.25;;;;;;;8.71;59.38;98466.09;6145704;23;20000;-96
2024/02/10 00:06:49;;;;;;;25.95;10.20;;;;;;;8.60;58.98;98451.13;6146035;23;20079;-95
2024/02/10 00:09:15;;;;;;;22.58;9.68;;;;;;;8.61;59.77;98448.19;6147484;23;20004;-94
2024/02/10 00:11:46;;;;;;;21.50;9.70;;;;;;;8.66;59.25;98466.91;6146770;23;20135;-96
2024/02/10 00:16:57;;;;;;;19.75;9.20;;;;;;;8.74;60.30;98467.44;6184222;23;20011;-96
2024/02/10 00:19:23;;;;;;;21.38;10.25;;;;;;;8.62;60.73;98448.97;6150927;23;20000;-96
2024/02/10 00:21:49;;;;;;;23.77;10.23;;;;;;;8.61;60.51;98440.13;6151244;23;20090;-96
2024/02/10 00:24:19;;;;;;;21.35;9.25;;;;;;;8.81;59.92;98465.22;6145378;23;20000;-96
2024/02/10 00:26:45;;;;;;;23.42;11.05;;;;;;;8.73;60.55;98447.81;6170827;23;20151;-96
2024/02/10 00:29:22;;;;;;;18.00;10.32;;;;;;;8.79;60.17;98459.34;6168901;23;20064;-96
2024/02/10 00:31:51;;;;;;;17.17;10.05;;;;;;;8.81;60.04;98462.53;6175396;23;20036;-96
2024/02/10 00:34:29;;;;;;;18.00;10.35;;;;;;;8.75;60.02;98450.22;6145876;23;20071;-96
2024/02/10 00:36:56;;;;;;;22.35;10.77;;;;;;;8.61;59.58;98447.38;6174381;23;20043;-96
2024/02/10 00:39:23;;;;;;;24.73;11.82;;;;;;;8.70;60.37;98475.22;6196382;23;20004;-96
2024/02/10 00:41:52;;;;;;;20.67;10.68;;;;;;;8.55;59.91;98445.78;6145898;23;20000;-96
2024/02/10 00:44:20;;;;;;;24.60;10.25;;;;;;;8.65;60.14;98473.38;6146942;23;20008;-95
2024/02/10 00:47:12;;;;;;;22.23;10.25;;;;;;;8.36;60.17;98438.34;6146346;23;20020;-96
2024/02/10 00:49:52;;;;;;;24.30;10.10;;;;;;;8.41;60.32;98446.41;6173998;23;20004;-96
2024/02/10 00:52:40;;;;;;;18.95;10.35;;;;;;;8.48;60.06;98470.25;6172020;23;20008;-96
2024/02/10 00:55:11;;;;;;;23.00;10.52;;;;;;;8.47;60.24;98458.72;6152524;23;20412;-96
2024/02/10 00:57:37;;;;;;;22.88;10.20;;;;;;;8.46;60.44;98446.38;6147167;23;20015;-96
2024/02/10 01:00:14;;;;;;;30.73;11.95;;;;;;;8.64;59.97;98463.72;6171283;23;20007;-96
2024/02/10 01:02:50;;;;;;;24.02;10.75;;;;;;;8.56;59.99;98439.34;6148779;23;20068;-96
2024/02/10 01:08:02;;;;;;;21.60;11.02;;;;;;;8.54;60.03;98447.69;6090025;23;20501;-96
2024/02/10 01:10:38;;;;;;;24.33;10.10;;;;;;;8.42;60.17;98448.00;6057305;23;20088;-96
2024/02/10 01:13:10;;;;;;;27.70;11.65;;;;;;;8.33;60.33;98446.16;6083422;23;19998;-96
2024/02/10 01:15:39;;;;;;;23.20;12.02;;;;;;;8.49;60.19;98442.34;6059574;23;20076;-96
2024/02/10 01:18:56;;;;;;;24.73;11.55;;;;;;;8.53;60.05;98431.84;6060366;23;20009;-96
2024/02/10 01:21:28;;;;;;;22.40;10.70;;;;;;;8.60;60.16;98449.25;6127651;23;20038;-96
2024/02/10 01:23:59;;;;;;;21.83;10.82;;;;;;;8.48;60.13;98433.47;6067470;23;20006;-96
2024/02/10 01:26:30;;;;;;;20.10;10.18;;;;;;;8.56;60.33;98466.97;6092178;23;20389;-96
2024/02/10 01:29:17;;;;;;;17.13;10.25;;;;;;;8.40;60.22;98458.19;6082582;23;20005;-96
2024/02/10 01:31:53;;;;;;;21.52;10.88;;;;;;;8.27;60.17;98459.59;6159908;23;20000;-96
2024/02/10 01:34:22;;;;;;;18.42;10.20;;;;;;;8.43;60.55;98472.97;6158605;23;20031;-96
2024/02/10 01:36:53;;;;;;;20.85;10.32;;;;;;;8.34;60.55;98474.56;6153774;23;19996;-96
2024/02/10 01:39:40;;;;;;;21.95;10.13;;;;;;;8.23;60.71;98463.09;6157145;23;20004;-96
2024/02/10 01:42:08;;;;;;;19.00;10.55;;;;;;;8.10;60.62;98449.22;6183999;23;20078;-96
2024/02/10 01:44:36;;;;;;;19.88;10.00;;;;;;;8.17;60.82;98448.91;6156762;23;20025;-96
2024/02/10 01:47:10;;;;;;;20.73;9.98;;;;;;;8.29;60.59;98457.44;6155888;23;20004;-96
2024/02/10 01:50:02;;;;;;;19.70;10.48;;;;;;;8.35;60.80;98462.78;6159229;23;20000;-96
2024/02/10 01:52:30;;;;;;;;;;;;;;;8.36;60.90;98459.81;6163733;23;20059;-96
2024/02/10 01:58:50;;;;;;;;;;;;;;;;;;;;;
2024/02/10 02:27:06;;;;;;;23.20;10.70;;;;;;;8.05;61.26;98417.06;6272790;23;20023;-96
2024/02/10 02:37:18;;;;;;;21.25;10.85;;;;;;;7.86;61.13;98413.38;6076748;23;20140;-96
2024/02/10 02:40:52;;;;;;;;;;;;;;;;;;;;;
2024/02/10 04:15:45;;;;;;;;;;;;;;;;;;;;;
2024/02/10 04:18:46;;;;;;;23.35;12.63;;;;;;;7.68;62.91;98465.72;6225951;22;20071;-96
2024/02/10 04:21:14;;;;;;;25.05;12.77;;;;;;;7.70;62.17;98458.22;6183905;23;20016;-96
2024/02/10 04:23:51;;;;;;;26.77;14.57;;;;;;;7.63;62.90;98455.00;6185539;23;20035;-96
2024/02/10 04:26:51;;;;;;;31.83;15.48;;;;;;;7.73;62.41;98486.34;6205087;23;20004;-96
2024/02/10 04:29:40;;;;;;;33.50;14.73;;;;;;;7.61;62.28;98475.91;6117941;23;20001;-96
2024/02/10 04:32:22;;;;;;;;;;;;;;;;;;;;;
2024/02/10 04:38:39;;;;;;;;;;;;;;;;;;;;;
2024/02/10 04:41:28;;;;;;;37.35;14.38;;;;;;;7.59;62.66;98492.22;5937917;24;20013;-96
2024/02/10 04:44:25;;;;;;;25.33;13.90;;;;;;;7.62;62.71;98490.91;5899162;24;20029;-96
2024/02/10 04:47:24;;;;;;;;;;;;;;;;;;;;;
2024/02/10 05:26:07;;;;;;;;;;;;;;;;;;;;;
2024/02/10 05:28:44;;;;;;;24.27;11.55;;;;;;;7.51;62.71;98465.19;6175345;23;20018;-96
2024/02/10 05:49:21;;;;;;;26.42;11.48;;;;;;;7.48;63.43;98474.59;6230109;22;20027;-96
2024/02/10 05:52:09;;;;;;;27.67;11.88;;;;;;;7.44;63.00;98465.47;6164660;23;20068;-96
2024/02/10 05:54:46;;;;;;;19.85;11.38;;;;;;;7.72;62.73;98485.53;6167208;23;20439;-96
2024/02/10 05:57:39;;;;;;;24.52;11.30;;;;;;;7.54;62.75;98454.75;6184917;23;20010;-96
2024/02/10 06:03:42;;;;;;;;;;;;;;;;;;;;;
2024/02/10 06:06:15;;;;;;;24.88;11.68;;;;;;;7.76;62.50;98504.53;6196633;23;20020;-96
2024/02/10 06:09:28;;;;;;;;;;;;;;;;;;;;;
2024/02/10 06:15:47;;;;;;;;;;;;;;;;;;;;;
2024/02/10 06:18:16;;;;;;;33.97;15.73;;;;;;;7.85;62.80;98525.16;6111160;23;20045;-96
2024/02/10 06:20:54;;;;;;;31.52;14.98;;;;;;;7.71;62.85;98496.53;6092065;23;20508;-96
2024/02/10 06:23:27;;;;;;;33.40;15.00;;;;;;;7.90;62.78;98518.97;6089109;23;20008;-96
2024/02/10 06:25:54;;;;;;;24.65;14.23;;;;;;;7.92;62.09;98508.00;6105463;23;20060;-96
2024/02/10 06:28:21;;;;;;;34.00;15.88;;;;;;;7.98;62.07;98526.47;6139408;23;20345;-96
2024/02/10 06:30:52;;;;;;;37.35;17.23;;;;;;;7.85;62.62;98511.75;6117624;23;20057;-96
2024/02/10 06:33:23;;;;;;;30.52;16.73;;;;;;;8.02;62.13;98521.38;6118710;23;20001;-96
2024/02/10 06:35:58;;;;;;;30.05;15.73;;;;;;;7.97;62.18;98518.69;6139612;23;20002;-96
2024/02/10 06:38:28;;;;;;;34.75;16.40;;;;;;;8.07;61.51;98516.81;6117282;23;19986;-96
2024/02/10 06:40:54;;;;;;;38.35;16.88;;;;;;;8.29;61.02;98521.00;6113642;23;20472;-95
2024/02/10 06:43:34;;;;;;;34.58;16.90;;;;;;;8.29;61.18;98519.13;6137030;23;20004;-96
2024/02/10 06:46:05;;;;;;;38.63;17.27;;;;;;;8.58;60.59;98539.94;6110763;23;20152;-96
2024/02/10 06:48:41;;;;;;;36.60;17.42;;;;;;;8.57;60.61;98524.13;6111965;23;20037;-96
2024/02/10 06:51:08;;;;;;;37.67;18.92;;;;;;;8.66;60.38;98544.75;6112176;23;20025;-96
2024/02/10 06:53:38;;;;;;;37.38;19.15;;;;;;;8.56;60.56;98526.00;6114279;23;20001;-96
2024/02/10 06:56:10;;;;;;;43.13;17.95;;;;;;;8.67;60.25;98545.53;6120631;23;19997;-96
2024/02/10 06:58:38;;;;;;;47.42;21.60;;;;;;;8.42;60.71;98525.00;6134761;23;19997;-96
2024/02/10 07:01:12;;;;;;;48.70;22.83;;;;;;;8.40;60.89;98552.06;6150183;23;20012;-95
2024/02/10 07:03:47;;;;;;;49.10;22.90;;;;;;;8.49;60.07;98545.09;6149266;23;20027;-95
2024/02/10 07:06:17;;;;;;;53.13;23.50;;;;;;;8.57;60.21;98557.16;6152709;23;20009;-96
2024/02/10 07:08:48;;;;;;;58.10;25.02;;;;;;;8.44;60.77;98537.06;6157021;23;20024;-96
2024/02/10 07:11:14;;;;;;;52.63;24.50;;;;;;;8.56;60.83;98549.38;6174891;23;20001;-95
2024/02/10 07:13:43;;;;;;;50.33;25.27;;;;;;;8.71;60.43;98570.75;6151470;23;20012;-95
2024/02/10 07:16:20;;;;;;;58.97;25.65;;;;;;;8.77;59.90;98566.16;6148094;23;20003;-96
2024/02/10 07:18:59;;;;;;;65.57;24.98;;;;;;;8.79;59.97;98572.84;6150624;23;20001;-96
2024/02/10 07:21:25;;;;;;;59.47;25.70;;;;;;;8.67;60.28;98562.47;6206234;23;20005;-95
2024/02/10 07:23:53;;;;;;;57.72;27.88;;;;;;;8.76;60.34;98560.00;6147110;23;20035;-96
2024/02/10 07:26:37;;;;;;;57.35;26.58;;;;;;;8.92;59.91;98578.69;6173937;23;20004;-95
2024/02/10 07:29:09;;;;;;;53.90;31.15;;;;;;;8.88;60.24;98568.53;6181256;23;20012;-96
2024/02/10 07:31:35;;;;;;;51.72;25.50;;;;;;;8.97;59.50;98566.06;6167661;23;20005;-93
2024/02/10 07:34:02;;;;;;;44.30;23.65;;;;;;;9.28;58.78;98588.16;6164799;23;20012;-87
2024/02/10 07:36:34;;;;;;;46.78;24.70;;;;;;;9.43;58.79;98587.22;6189996;23;20024;-87
2024/02/10 07:39:07;;;;;;;53.10;25.50;;;;;;;9.53;58.37;98578.31;6217118;23;20423;-92
2024/02/10 07:41:39;;;;;;;46.67;25.65;;;;;;;9.68;58.54;98577.38;6142321;23;20004;-91
2024/02/10 07:44:12;;;;;;;58.17;27.83;;;;;;;9.79;57.86;98570.81;6190026;23;20424;-92
2024/02/10 07:46:38;;;;;;;68.40;31.13;;;;;;;9.96;57.92;98570.41;6215860;23;20288;-92
2024/02/10 07:49:06;;;;;;;76.22;34.63;;;;;;;10.00;57.37;98551.78;6164584;23;20017;-92
2024/02/10 07:51:34;;;;;;;76.10;33.33;;;;;;;10.11;56.72;98550.63;6166489;23;20007;-91
2024/02/10 07:54:00;;;;;;;58.20;29.80;;;;;;;10.23;56.49;98553.72;6164541;23;19996;-92
2024/02/10 07:56:29;;;;;;;76.40;34.13;;;;;;;10.45;56.14;98555.88;6165596;23;20020;-92
2024/02/10 07:59:26;;;;;;;73.45;37.38;;;;;;;10.57;56.54;98560.88;6203310;23;20415;-96
2024/02/10 08:02:04;;;;;;;85.72;35.17;;;;;;;10.45;57.03;98539.75;6166919;23;20027;-96
2024/02/10 08:04:33;;;;;;;79.18;34.08;;;;;;;10.64;56.46;98558.63;6092393;23;20013;-95
2024/02/10 08:07:16;;;;;;;77.80;34.10;;;;;;;10.77;56.03;98554.44;6086653;23;20527;-95
2024/02/10 08:09:58;;;;;;;70.35;32.67;;;;;;;10.94;55.42;98555.81;6114165;23;20006;-96
2024/02/10 08:12:48;;;;;;;77.55;34.67;;;;;;;11.17;55.27;98560.34;6105481;23;20083;-96
2024/02/10 08:15:38;;;;;;;84.38;34.33;;;;;;;11.14;54.56;98536.66;6179008;23;20001;-96
2024/02/10 08:18:21;;;;;;;88.20;34.95;;;;;;;11.26;54.61;98531.63;6146107;23;20001;-96
2024/02/10 08:20:53;;;;;;;83.90;34.70;;;;;;;11.60;54.20;98572.88;6097549;23;20013;-96
2024/02/10 08:23:19;;;;;;;;;;;;;;;11.72;53.82;98568.63;6094627;23;20005;-96
2024/02/10 08:25:48;;;;;;;70.20;32.72;;;;;;;11.86;53.88;98575.94;6115378;23;19920;-96
2024/02/10 08:28:22;;;;;;;67.32;34.20;;;;;;;11.95;53.55;98562.59;6115958;23;20008;-96
2024/02/10 08:30:49;;;;;;;72.10;35.53;;;;;;;11.99;53.40;98545.50;6085364;23;20036;-96
2024/02/10 08:33:20;;;;;;;68.90;35.33;;;;;;;12.12;53.00;98546.66;6152381;23;20075;-96
2024/02/10 08:35:46;;;;;;;75.43;37.40;;;;;;;12.31;52.43;98563.53;6144396;23;20052;-95
2024/02/10 08:38:15;;;;;;;65.32;34.95;;;;;;;12.31;52.28;98533.84;6166920;23;20228;-94
2024/02/10 08:40:41;;;;;;;81.70;37.50;;;;;;;12.56;52.22;98547.94;6144045;23;20007;-95
2024/02/10 08:43:09;;;;;;;86.55;41.22;;;;;;;12.59;51.86;98527.63;6144826;23;20336;-95
2024/02/10 08:45:35;;;;;;;67.60;35.00;;;;;;;12.78;50.94;98532.88;6141639;23;20007;-95
2024/02/10 08:48:08;;;;;;;50.53;23.77;;;;;;;13.02;49.76;98556.97;6142353;23;20444;-95
2024/02/10 08:54:10;;;;;;;37.53;19.45;;;;;;;13.33;48.30;98555.16;6224248;23;20062;-96
2024/02/10 08:56:41;;;;;;;30.85;12.15;;;;;;;13.31;46.86;98526.84;6155628;23;20416;-95
2024/02/10 08:59:09;;;;;;;18.27;9.23;;;;;;;13.52;45.88;98527.94;6146305;23;20432;-96
2024/02/10 09:01:37;;;;;;;14.45;7.78;;;;;;;13.64;45.15;98519.28;6145245;23;19993;-96
2024/02/10 09:04:04;;;;;;;12.57;7.88;;;;;;;13.80;44.59;98524.28;6146434;23;20004;-96
2024/02/10 09:06:29;;;;;;;14.85;8.02;;;;;;;14.07;44.29;98547.66;6147332;23;20012;-95
2024/02/10 09:08:55;;;;;;;16.23;7.57;;;;;;;14.10;43.47;98522.66;6145585;23;19997;-96
2024/02/10 09:11:20;;;;;;;20.30;9.35;;;;;;;14.35;43.53;98540.13;6166974;23;20351;-94
2024/02/10 09:13:48;;;;;;;20.75;8.90;;;;;;;14.54;42.93;98543.34;6166036;23;20001;-94
2024/02/10 09:16:13;;;;;;;18.15;7.55;;;;;;;14.63;42.32;98535.31;6168274;23;19993;-94
2024/02/10 09:18:42;;;;;;;21.17;8.65;;;;;;;14.75;42.16;98521.94;6139803;23;20059;-93
2024/02/10 09:21:17;;;;;;;16.02;7.10;;;;;;;15.10;41.55;98542.84;6140525;23;20001;-91
2024/02/10 09:23:43;;;;;;;9.55;6.45;;;;;;;15.33;40.84;98535.31;6167674;23;19996;-92
2024/02/10 09:26:11;;;;;;;17.88;7.15;;;;;;;15.47;40.98;98510.75;6165224;23;20054;-92
2024/02/10 09:28:44;;;;;;;13.35;6.90;;;;;;;15.68;40.49;98527.94;6143057;23;20091;-95
2024/02/10 09:31:13;;;;;;;12.57;7.25;;;;;;;15.77;39.73;98519.78;6144093;23;20000;-95
2024/02/10 09:33:44;;;;;;;18.33;8.38;;;;;;;15.71;40.20;98496.66;6146420;23;20092;-95
2024/02/10 09:36:13;;;;;;;29.25;8.82;;;;;;;15.82;40.39;98516.13;6141388;23;20431;-95
2024/02/10 09:38:45;;;;;;;25.05;9.05;;;;;;;15.91;40.08;98517.66;6168434;23;20067;-95
2024/02/10 09:41:16;;;;;;;21.83;7.80;;;;;;;15.87;39.42;98505.06;6144769;23;20075;-95
2024/02/10 09:43:48;;;;;;;11.98;6.15;;;;;;;16.12;38.58;98523.22;6168340;23;20427;-95
2024/02/10 09:46:16;;;;;;;23.33;7.75;;;;;;;16.19;38.60;98519.97;6144552;23;20327;-96
2024/02/10 09:48:50;;;;;;;20.00;6.82;;;;;;;16.20;38.51;98507.97;6143059;23;20012;-95
2024/02/10 09:51:16;;;;;;;15.30;6.97;;;;;;;16.43;38.58;98519.34;6147339;23;20004;-96
2024/02/10 09:53:42;;;;;;;14.50;6.75;;;;;;;16.51;38.26;98502.22;6170126;23;20004;-95
2024/02/10 09:56:10;;;;;;;23.20;7.13;;;;;;;16.72;37.74;98499.50;6146109;23;20003;-95
2024/02/10 09:58:44;;;;;;;23.08;11.02;;;;;;;16.91;37.54;98498.28;6152413;23;20005;-94
2024/02/10 10:01:18;;;;;;;15.35;6.15;;;;;;;17.00;36.74;98485.44;6146329;23;20009;-96
2024/02/10 10:12:20;;;;;;;32.53;7.18;;;;;;;17.35;35.75;98480.47;6202011;22;20424;-95
2024/02/10 10:15:06;;;;;;;18.27;6.95;;;;;;;17.45;35.51;98467.56;6182961;23;20024;-95
2024/02/10 10:17:43;;;;;;;25.60;7.95;;;;;;;17.64;36.04;98478.75;6149558;23;20004;-95
2024/02/10 10:20:11;;;;;;;14.93;6.70;;;;;;;17.81;35.42;98482.41;6169819;23;20004;-95
2024/02/10 10:22:40;;;;;;;15.55;7.55;;;;;;;17.88;35.76;98461.66;6146584;23;20344;-95
2024/02/10 10:25:06;;;;;;;13.80;6.18;;;;;;;18.06;35.35;98462.25;6167767;23;20039;-96
2024/02/10 10:27:38;;;;;;;14.38;6.75;;;;;;;18.26;34.73;98449.66;6144357;23;20031;-95
2024/02/10 10:30:06;;;;;;;14.70;6.88;;;;;;;18.44;34.63;98450.16;6194632;23;20408;-95
2024/02/10 10:32:32;;;;;;;27.33;8.73;;;;;;;18.61;34.29;98451.84;6145235;23;20000;-95
2024/02/10 10:34:58;;;;;;;20.10;6.38;;;;;;;18.54;33.99;98446.19;6144631;23;20084;-95
2024/02/10 10:37:26;;;;;;;17.70;6.50;;;;;;;18.66;33.23;98459.78;6144434;23;20011;-95
2024/02/10 10:39:54;;;;;;;12.48;5.53;;;;;;;18.47;32.11;98441.31;6145531;23;20042;-95
2024/02/10 10:42:25;;;;;;;10.75;5.30;;;;;;;18.55;31.72;98447.75;6146620;23;19997;-96
2024/02/10 10:44:50;;;;;;;15.60;5.72;;;;;;;18.55;32.17;98451.31;6147376;23;20088;-96
2024/02/10 10:47:22;;;;;;;24.92;6.47;;;;;;;18.49;32.65;98446.41;6145377;23;20336;-96
2024/02/10 10:50:11;;;;;;;;;;;;;;;18.62;31.20;98456.16;6150173;23;20015;-95
2024/02/10 10:52:43;;;;;;;22.85;5.63;;;;;;;18.52;32.23;98443.78;6226434;23;20341;-96
2024/02/10 10:55:25;;;;;;;;;;;;;;;;;;;;;
2024/02/10 10:57:57;;;;;;;14.18;5.25;;;;;;;18.55;31.27;98440.41;6179644;23;20071;-96
2024/02/10 11:00:25;;;;;;;6.13;3.20;;;;;;;18.70;30.96;98454.44;6146289;23;20059;-96
2024/02/10 11:02:53;;;;;;;28.35;5.82;;;;;;;18.74;30.40;98442.50;6172442;23;20001;-96
2024/02/10 11:05:23;;;;;;;17.42;3.55;;;;;;;18.70;30.49;98440.81;6147064;23;20011;-96
2024/02/10 11:08:08;;;;;;;10.73;4.00;;;;;;;18.70;30.75;98436.16;6171784;23;20012;-96
2024/02/10 11:10:54;;;;;;;6.15;2.78;;;;;;;18.54;29.53;98425.16;6219673;23;20001;-96
2024/02/10 11:13:21;;;;;;;5.57;3.08;;;;;;;18.53;28.96;98414.59;6216731;23;20447;-96
2024/02/10 11:16:05;;;;;;;18.20;5.38;;;;;;;18.52;30.18;98429.38;6146227;22;20132;-96
2024/02/10 11:18:41;;;;;;;20.27;4.78;;;;;;;18.47;29.97;98438.59;6181709;23;20025;-96
2024/02/10 11:21:18;;;;;;;15.18;4.43;;;;;;;18.45;30.20;98429.97;6155140;23;20024;-96
2024/02/10 11:24:19;;;;;;;23.75;5.22;;;;;;;18.55;30.64;98450.50;6180885;23;20005;-96
2024/02/10 11:26:48;;;;;;;38.42;5.90;;;;;;;18.40;30.78;98432.13;6208135;23;20012;-96
2024/02/10 11:29:22;;;;;;;27.42;5.97;;;;;;;18.55;30.75;98450.50;6157039;23;20115;-96
2024/02/10 11:31:52;;;;;;;42.22;6.97;;;;;;;18.52;30.86;98438.34;6159254;23;20020;-96
2024/02/10 11:34:21;;;;;;;24.50;6.72;;;;;;;18.59;30.95;98424.13;6157792;23;20056;-96
2024/02/10 11:37:09;;;;;;;26.95;9.95;;;;;;;18.76;31.00;98434.78;6181472;23;19996;-96
2024/02/10 11:39:46;;;;;;;19.25;6.80;;;;;;;18.89;31.25;98446.47;6185634;23;20057;-96
2024/02/10 11:42:16;;;;;;;17.60;5.63;;;;;;;19.02;31.08;98451.88;6185474;23;20013;-96
2024/02/10 11:45:00;;;;;;;12.57;3.53;;;;;;;19.06;31.20;98455.50;6183515;23;20032;-96
2024/02/10 11:47:34;;;;;;;44.55;6.70;;;;;;;19.17;30.90;98449.19;6164773;23;20394;-96
2024/02/10 11:50:04;;;;;;;45.05;8.63;;;;;;;19.16;30.47;98428.50;6181115;23;20001;-96
2024/02/10 11:52:36;;;;;;;17.65;5.82;;;;;;;19.30;30.85;98425.38;6158933;23;20001;-96
2024/02/10 11:55:20;;;;;;;11.23;4.10;;;;;;;19.41;29.67;98424.84;6183269;23;20061;-96
2024/02/10 11:58:04;;;;;;;21.92;6.60;;;;;;;19.38;30.44;98415.41;6165026;23;20012;-96
2024/02/10 12:00:36;;;;;;;8.30;3.00;;;;;;;19.39;30.35;98411.53;6185347;23;20000;-96
2024/02/10 12:06:27;;;;;;;20.40;4.68;;;;;;;19.46;30.58;98402.75;6212325;23;20039;-96
2024/02/10 12:08:58;;;;;;;14.85;6.38;;;;;;;19.51;30.53;98410.69;6152370;23;19997;-96
2024/02/10 12:14:13;;;;;;;27.30;5.40;;;;;;;19.63;30.50;98417.97;6235696;22;20036;-95
2024/02/10 12:16:44;;;;;;;13.23;4.68;;;;;;;19.66;30.16;98417.28;6155847;23;20032;-96
2024/02/10 12:19:28;;;;;;;10.07;4.53;;;;;;;19.62;29.65;98409.00;6156621;23;20004;-96
2024/02/10 12:21:57;;;;;;;7.82;3.90;;;;;;;19.46;28.76;98392.59;6167205;23;19985;-96
2024/02/10 12:24:51;;;;;;;10.43;3.67;;;;;;;19.48;29.18;98419.56;6161060;23;20000;-96
2024/02/10 12:27:51;;;;;;;13.10;3.40;;;;;;;19.44;29.50;98413.22;6223888;23;20344;-96
2024/02/10 12:30:41;;;;;;;15.05;3.75;;;;;;;19.30;29.66;98402.72;6199202;23;20018;-96
2024/02/10 12:33:09;;;;;;;11.75;4.20;;;;;;;19.25;29.34;98402.97;6107811;23;20002;-96
2024/02/10 12:35:45;;;;;;;13.00;4.13;;;;;;;19.09;29.64;98403.75;6063889;23;20002;-96
2024/02/10 12:38:19;;;;;;;12.38;3.45;;;;;;;19.07;30.01;98405.22;6064861;23;20109;-96
2024/02/10 12:41:09;;;;;;;7.80;3.10;;;;;;;18.97;30.16;98398.34;6095464;23;20006;-96
2024/02/10 12:47:15;;;;;;;10.35;4.10;;;;;;;18.81;30.24;98389.34;6211698;22;20013;-96
2024/02/10 12:53:09;;;;;;;10.52;4.00;;;;;;;18.81;31.03;98417.38;6229995;23;20058;-96
2024/02/10 12:55:44;;;;;;;16.67;5.70;;;;;;;18.73;31.83;98427.25;6187248;23;20023;-96
2024/02/10 12:58:19;;;;;;;13.95;4.00;;;;;;;18.46;31.88;98393.38;6235804;23;20031;-96
2024/02/10 13:01:02;;;;;;;8.98;3.65;;;;;;;18.30;31.66;98400.69;6183266;23;20015;-96
2024/02/10 13:03:36;;;;;;;12.40;4.82;;;;;;;18.51;31.99;98427.78;6184800;23;20352;-96
2024/02/10 13:06:29;;;;;;;18.08;4.20;;;;;;;18.33;32.19;98400.00;6066526;23;20007;-96
2024/02/10 13:09:30;;;;;;;9.30;4.43;;;;;;;18.26;32.17;98395.16;6063461;23;20122;-96
2024/02/10 13:16:05;;;;;;;10.50;3.70;;;;;;;18.06;32.91;98401.53;6201547;22;20036;-96
2024/02/10 13:19:27;;;;;;;9.18;3.10;;;;;;;18.07;32.29;98425.69;6110147;23;20014;-96
2024/02/10 13:28:46;;;;;;;9.90;3.78;;;;;;;17.93;32.90;98430.69;6170784;22;20029;-96
2024/02/10 13:31:29;;;;;;;13.55;4.32;;;;;;;18.02;33.00;98425.13;6169796;23;20064;-96
2024/02/10 14:04:36;;;;;;;17.10;5.00;;;;;;;17.77;34.36;98455.03;6230625;22;20047;-96
2024/02/10 14:20:45;;;;;;;13.27;4.93;;;;;;;17.49;34.98;98461.13;6219925;22;20027;-96
2024/02/10 14:23:11;;;;;;;22.27;5.55;;;;;;;17.49;35.67;98469.28;6178665;23;20036;-96
2024/02/10 14:25:50;;;;;;;36.88;7.72;;;;;;;17.33;36.29;98465.63;6180125;23;20080;-96
2024/02/10 14:28:38;;;;;;;28.27;6.55;;;;;;;17.38;35.76;98476.28;6162185;23;20004;-96
2024/02/10 14:31:21;;;;;;;7.97;4.28;;;;;;;17.20;35.90;98459.31;6162708;23;20011;-96
2024/02/10 14:34:37;;;;;;;17.70;5.70;;;;;;;17.10;36.43;98460.56;6144162;23;20084;-96
2024/02/10 14:40:34;;;;;;;11.02;4.22;;;;;;;17.11;35.64;98486.59;6094812;23;20048;-96
2024/02/10 14:43:29;;;;;;;14.70;4.75;;;;;;;17.03;35.14;98482.03;6062925;23;20008;-96
2024/02/10 14:49:23;;;;;;;6.97;4.18;;;;;;;16.99;34.74;98483.03;6228642;22;20031;-96
2024/02/10 14:51:57;;;;;;;12.68;4.22;;;;;;;16.90;34.89;98466.81;6235806;23;20012;-96
2024/02/10 14:54:37;;;;;;;14.00;5.45;;;;;;;17.02;34.84;98483.19;6184929;23;20001;-96
2024/02/10 14:57:08;;;;;;;6.88;3.60;;;;;;;16.80;34.43;98459.81;6208681;23;20035;-96
2024/02/10 15:00:12;;;;;;;;;;;;;;;;;;;;;
2024/02/10 15:06:54;;;;;;;;;;;;;;;;;;;;;
2024/02/10 15:09:52;;;;;;;9.07;4.20;;;;;;;16.62;34.69;98434.69;6090402;23;19995;-96
2024/02/10 15:13:06;;;;;;;9.55;3.60;;;;;;;16.71;34.58;98459.09;6090987;23;20014;-96
2024/02/10 15:25:26;;;;;;;10.35;4.50;;;;;;;16.34;34.68;98442.56;6242548;23;20107;-96
2024/02/10 15:32:21;;;;;;;6.57;3.60;;;;;;;16.24;35.40;98430.13;6233866;23;20007;-96
2024/02/10 15:38:48;;;;;;;;;;;;;;;;;;;;;
2024/02/10 15:41:59;;;;;;;10.25;4.70;;;;;;;16.18;35.41;98442.31;6202845;23;20023;-96
2024/02/10 15:45:24;;;;;;;11.20;4.50;;;;;;;15.96;35.76;98414.34;6263399;23;20023;-96
2024/02/10 15:48:26;;;;;;;12.05;4.82;;;;;;;15.97;35.80;98409.69;6105149;23;20081;-96
2024/02/10 15:51:18;;;;;;;7.38;4.10;;;;;;;15.96;35.94;98421.69;6105867;23;20009;-96
2024/02/10 16:01:27;;;;;;;9.70;4.15;;;;;;;16.00;36.61;98451.69;6117612;23;20042;-96
2024/02/10 16:13:54;;;;;;;8.35;3.70;;;;;;;15.87;37.07;98465.16;6212535;23;20044;-96
2024/02/10 16:31:17;;;;;;;12.95;3.92;;;;;;;15.82;37.87;98491.69;6131376;23;20040;-96
2024/02/10 16:44:53;;;;;;;7.40;4.03;;;;;;;15.76;39.75;98488.34;6202092;23;20019;-96
2024/02/10 16:47:57;;;;;;;9.95;4.82;;;;;;;15.64;40.01;98471.91;6181512;22;20005;-96
2024/02/10 16:54:11;;;;;;;13.88;4.72;;;;;;;15.72;41.27;98498.25;6119665;23;20002;-96
2024/02/10 16:57:00;;;;;;;16.20;5.95;;;;;;;15.71;41.53;98500.16;6074816;23;20034;-96
2024/02/10 17:10:13;;;;;;;;;;;;;;;;;;;;;
2024/02/10 17:12:51;;;;;;;7.85;3.55;;;;;;;15.46;43.06;98480.09;6179308;23;20029;-96
2024/02/10 17:22:18;;;;;;;22.42;4.25;;;;;;;15.36;43.39;98475.81;6069532;23;20001;-96
2024/02/10 17:25:05;;;;;;;8.77;3.95;;;;;;;15.39;43.81;98482.50;6125939;23;20011;-96
2024/02/10 17:27:54;;;;;;;13.52;6.93;;;;;;;15.33;44.15;98490.00;6131174;23;20009;-96
2024/02/10 17:30:32;;;;;;;11.82;4.28;;;;;;;15.47;44.17;98502.59;6128946;23;20001;-96
2024/02/10 17:33:19;;;;;;;;;;;;;;;;;;;;;
2024/02/10 17:36:01;;;;;;;10.95;4.05;;;;;;;15.32;44.46;98482.22;6201329;23;20000;-96
2024/02/10 17:38:27;;;;;;;10.30;4.10;;;;;;;15.35;44.69;98489.69;6147603;23;20522;-96
2024/02/10 17:40:54;;;;;;;14.00;4.30;;;;;;;15.50;44.83;98504.66;6123362;23;20085;-96
2024/02/10 17:43:21;;;;;;;9.70;3.78;;;;;;;15.44;44.88;98493.19;6148615;23;19997;-96
2024/02/10 17:45:54;;;;;;;6.78;3.55;;;;;;;15.46;44.80;98498.28;6148126;23;20012;-96
2024/02/10 17:48:25;;;;;;;10.70;4.40;;;;;;;15.45;45.08;98497.50;6126454;23;20005;-96
2024/02/10 17:50:56;;;;;;;12.13;4.40;;;;;;;15.48;44.52;98496.88;6125167;23;20011;-96
2024/02/10 17:53:25;;;;;;;9.57;4.10;;;;;;;15.49;44.62;98498.44;6151643;23;20344;-96
2024/02/10 17:56:03;;;;;;;9.38;4.07;;;;;;;15.52;44.51;98500.53;6173634;23;20005;-96
2024/02/10 17:58:38;;;;;;;10.98;3.80;;;;;;;15.59;44.61;98507.38;6129084;23;20064;-96
2024/02/10 18:01:39;;;;;;;7.25;3.97;;;;;;;15.62;44.78;98520.28;6134723;23;19997;-96
2024/02/10 18:04:34;;;;;;;11.82;4.25;;;;;;;15.36;45.15;98494.81;6186771;23;20005;-96
2024/02/10 18:13:31;;;;;;;7.65;3.38;;;;;;;15.38;44.79;98493.66;6162975;22;20035;-96
2024/02/10 18:18:50;;;;;;;11.10;5.20;;;;;;;15.43;45.09;98528.78;6212576;23;20015;-96
2024/02/10 18:33:51;;;;;;;7.10;3.47;;;;;;;15.25;45.90;98536.94;6133414;23;20090;-96
2024/02/10 18:36:33;;;;;;;13.80;3.00;;;;;;;15.14;45.85;98527.53;5981296;23;19996;-96
2024/02/10 18:39:06;;;;;;;8.15;3.63;;;;;;;15.22;45.74;98534.84;6079117;23;20019;-96
2024/02/10 18:41:41;;;;;;;10.02;3.70;;;;;;;15.26;45.73;98535.81;6189873;23;20016;-96
2024/02/10 18:44:13;;;;;;;6.00;3.13;;;;;;;15.23;45.69;98531.03;6188922;23;19985;-96
2024/02/10 18:46:49;;;;;;;14.25;3.92;;;;;;;15.22;45.75;98529.44;6168681;23;20026;-96
2024/02/10 18:49:34;;;;;;;11.40;3.60;;;;;;;15.21;46.28;98538.69;6150100;23;20002;-96
2024/02/10 18:55:28;;;;;;;14.32;3.20;;;;;;;15.02;46.68;98536.28;6147332;23;20025;-96
2024/02/10 19:09:32;;;;;;;7.10;2.90;;;;;;;15.01;46.49;98542.84;6179171;23;20032;-96
2024/02/10 19:12:02;;;;;;;8.35;3.13;;;;;;;15.02;46.45;98541.69;6089032;23;20002;-96
2024/02/10 19:14:40;;;;;;;10.15;3.13;;;;;;;15.06;46.67;98552.72;6072218;23;19987;-96
2024/02/10 19:28:26;;;;;;;9.02;2.70;;;;;;;14.80;46.84;98531.03;6198394;23;19920;-96
2024/02/10 19:31:11;;;;;;;9.05;3.25;;;;;;;14.91;47.15;98545.84;6159003;23;20066;-96